Map

Track Data

SID SEASON NUMBER BASIN SUBBASIN NAME ISO_TIME NATURE LAT LON WMO_WIND WMO_PRES WMO_AGENCY TRACK_TYPE DIST2LAND LANDFALL IFLAG USA_AGENCY USA_ATCF_ID USA_LAT USA_LON USA_RECORD USA_STATUS USA_WIND USA_PRES USA_SSHS USA_R34_NE USA_R34_SE USA_R34_SW USA_R34_NW USA_R50_NE USA_R50_SE USA_R50_SW USA_R50_NW USA_R64_NE USA_R64_SE USA_R64_SW USA_R64_NW USA_POCI USA_ROCI USA_RMW USA_EYE TOKYO_LAT TOKYO_LON TOKYO_GRADE TOKYO_WIND TOKYO_PRES TOKYO_R50_DIR TOKYO_R50_LONG TOKYO_R50_SHORT TOKYO_R30_DIR TOKYO_R30_LONG TOKYO_R30_SHORT TOKYO_LAND CMA_LAT CMA_LON CMA_CAT CMA_WIND CMA_PRES HKO_LAT HKO_LON HKO_CAT HKO_WIND HKO_PRES NEWDELHI_LAT NEWDELHI_LON NEWDELHI_GRADE NEWDELHI_WIND NEWDELHI_PRES NEWDELHI_CI NEWDELHI_DP NEWDELHI_POCI REUNION_LAT REUNION_LON REUNION_TYPE REUNION_WIND REUNION_PRES REUNION_TNUM REUNION_CI REUNION_RMW REUNION_R34_NE REUNION_R34_SE REUNION_R34_SW REUNION_R34_NW REUNION_R50_NE REUNION_R50_SE REUNION_R50_SW REUNION_R50_NW REUNION_R64_NE REUNION_R64_SE REUNION_R64_SW REUNION_R64_NW BOM_LAT BOM_LON BOM_TYPE BOM_WIND BOM_PRES BOM_TNUM BOM_CI BOM_RMW BOM_R34_NE BOM_R34_SE BOM_R34_SW BOM_R34_NW BOM_R50_NE BOM_R50_SE BOM_R50_SW BOM_R50_NW BOM_R64_NE BOM_R64_SE BOM_R64_SW BOM_R64_NW BOM_ROCI BOM_POCI BOM_EYE BOM_POS_METHOD BOM_PRES_METHOD NADI_LAT NADI_LON NADI_CAT NADI_WIND NADI_PRES WELLINGTON_LAT WELLINGTON_LON WELLINGTON_WIND WELLINGTON_PRES DS824_LAT DS824_LON DS824_STAGE DS824_WIND DS824_PRES TD9636_LAT TD9636_LON TD9636_STAGE TD9636_WIND TD9636_PRES TD9635_LAT TD9635_LON TD9635_WIND TD9635_PRES TD9635_ROCI NEUMANN_LAT NEUMANN_LON NEUMANN_CLASS NEUMANN_WIND NEUMANN_PRES MLC_LAT MLC_LON MLC_CLASS MLC_WIND MLC_PRES USA_GUST BOM_GUST BOM_GUST_PER REUNION_GUST REUNION_GUST_PER USA_SEAHGT USA_SEARAD_NE USA_SEARAD_SE USA_SEARAD_SW USA_SEARAD_NW STORM_SPEED STORM_DIR
1926287N12279 1926 54 NA CS NOT_NAMED 1926-10-14 06:00:00 TS 11.5000 -81.2000 25 hurdat_atl main 258 258 O_____________ hurdat_atl AL101926 11.5000 -81.2000 TD 25 -1 2 95
1926287N12279 1926 54 NA CS NOT_NAMED 1926-10-14 09:00:00 TS 11.4900 -81.0900 main 267 265 P_____________ AL101926 11.4900 -81.0900 TD 25 -1 2 90
1926287N12279 1926 54 NA CS NOT_NAMED 1926-10-14 12:00:00 TS 11.5000 -81.0000 25 hurdat_atl main 265 259 O_____________ hurdat_atl AL101926 11.5000 -81.0000 TD 25 -1 2 70
1926287N12279 1926 54 NA CS NOT_NAMED 1926-10-14 15:00:00 TS 11.5425 -80.9425 main 259 259 P_____________ AL101926 11.5425 -80.9425 TD 27 -1 1 43
1926287N12279 1926 54 NA CS NOT_NAMED 1926-10-14 18:00:00 TS 11.6000 -80.9000 30 hurdat_atl main 269 269 O_____________ hurdat_atl AL101926 11.6000 -80.9000 TD 30 -1 1 38
1926287N12279 1926 54 NA CS NOT_NAMED 1926-10-14 21:00:00 TS 11.6500 -80.8500 main 274 264 P_____________ AL101926 11.6500 -80.8500 TD 32 -1 1 43
1926287N12279 1926 54 NA CS NOT_NAMED 1926-10-15 00:00:00 TS 11.7000 -80.8000 35 hurdat_atl main 274 269 O_____________ hurdat_atl AL101926 11.7000 -80.8000 TS 35 0 1 48
1926287N12279 1926 54 NA CS NOT_NAMED 1926-10-15 03:00:00 TS 11.7425 -80.7425 main 269 269 P_____________ AL101926 11.7425 -80.7425 TS 35 0 1 43
1926287N12279 1926 54 NA CS NOT_NAMED 1926-10-15 06:00:00 TS 11.8000 -80.7000 35 hurdat_atl main 279 279 O_____________ hurdat_atl AL101926 11.8000 -80.7000 TS 35 0 2 15
1926287N12279 1926 54 NA CS NOT_NAMED 1926-10-15 09:00:00 TS 11.9000 -80.7000 main 290 290 P_____________ AL101926 11.9000 -80.7000 TS 35 0 2 8
1926287N12279 1926 54 NA CS NOT_NAMED 1926-10-15 12:00:00 TS 12.0000 -80.7000 35 hurdat_atl main 300 300 O_____________ hurdat_atl AL101926 12.0000 -80.7000 TS 35 0 2 20
1926287N12279 1926 54 NA CS NOT_NAMED 1926-10-15 15:00:00 TS 12.0575 -80.6500 main 307 306 P_____________ AL101926 12.0575 -80.6500 TS 37 0 1 43
1926287N12279 1926 54 NA CS NOT_NAMED 1926-10-15 18:00:00 TS 12.1000 -80.6000 40 hurdat_atl main 307 307 O_____________ hurdat_atl AL101926 12.1000 -80.6000 TS 40 0 1 36
1926287N12279 1926 54 NA CS NOT_NAMED 1926-10-15 21:00:00 TS 12.1425 -80.6000 main 307 307 P_____________ AL101926 12.1425 -80.6000 TS 40 0 1 0
1926287N12279 1926 54 NA CS NOT_NAMED 1926-10-16 00:00:00 TS 12.2000 -80.6000 40 hurdat_atl main 316 315 O_____________ hurdat_atl AL101926 12.2000 -80.6000 TS 40 0 2 19
1926287N12279 1926 54 NA CS NOT_NAMED 1926-10-16 03:00:00 TS 12.2925 -80.5500 main 315 315 P_____________ AL101926 12.2925 -80.5500 TS 42 0 2 27
1926287N12279 1926 54 NA CS NOT_NAMED 1926-10-16 06:00:00 TS 12.4000 -80.5000 45 hurdat_atl main 326 325 O_____________ hurdat_atl AL101926 12.4000 -80.5000 TS 45 0 2 17
1926287N12279 1926 54 NA CS NOT_NAMED 1926-10-16 09:00:00 TS 12.4925 -80.4925 main 325 325 P_____________ AL101926 12.4925 -80.4925 TS 45 0 2 8
1926287N12279 1926 54 NA CS NOT_NAMED 1926-10-16 12:00:00 TS 12.6000 -80.5000 45 hurdat_atl main 325 325 O_____________ hurdat_atl AL101926 12.6000 -80.5000 TS 45 0 3 358
1926287N12279 1926 54 NA CS NOT_NAMED 1926-10-16 15:00:00 TS 12.7425 -80.5000 main 325 325 P_____________ AL101926 12.7425 -80.5000 TS 47 0 3 0
1926287N12279 1926 54 NA CS NOT_NAMED 1926-10-16 18:00:00 TS 12.9000 -80.5000 50 hurdat_atl main 325 325 O_____________ hurdat_atl AL101926 12.9000 -80.5000 TS 50 0 3 0
1926287N12279 1926 54 NA CS NOT_NAMED 1926-10-16 21:00:00 TS 13.0500 -80.4925 main 321 316 P_____________ AL101926 13.0500 -80.4925 TS 50 0 3 0
1926287N12279 1926 54 NA CS NOT_NAMED 1926-10-17 00:00:00 TS 13.2000 -80.5000 50 hurdat_atl main 316 312 O_____________ hurdat_atl AL101926 13.2000 -80.5000 TS 50 0 3 348
1926287N12279 1926 54 NA CS NOT_NAMED 1926-10-17 03:00:00 TS 13.3425 -80.5425 main 312 294 P_____________ AL101926 13.3425 -80.5425 TS 52 0 3 343
1926287N12279 1926 54 NA CS NOT_NAMED 1926-10-17 06:00:00 TS 13.5000 -80.6000 55 hurdat_atl main 294 288 O_____________ hurdat_atl AL101926 13.5000 -80.6000 TS 55 0 4 345
1926287N12279 1926 54 NA CS NOT_NAMED 1926-10-17 09:00:00 TS 13.6925 -80.6425 main 288 273 P_____________ AL101926 13.6925 -80.6425 TS 55 0 4 347
1926287N12279 1926 54 NA CS NOT_NAMED 1926-10-17 12:00:00 TS 13.9000 -80.7000 55 hurdat_atl main 273 259 O_____________ hurdat_atl AL101926 13.9000 -80.7000 TS 55 0 4 341
1926287N12279 1926 54 NA CS NOT_NAMED 1926-10-17 15:00:00 TS 14.0925 -80.7850 main 259 247 P_____________ AL101926 14.0925 -80.7850 TS 57 0 4 334
1926287N12279 1926 54 NA CS NOT_NAMED 1926-10-17 18:00:00 TS 14.3000 -80.9000 60 993 hurdat_atl main 247 232 O_____________ hurdat_atl AL101926 14.3000 -80.9000 TS 60 993 0 5 331
1926287N12279 1926 54 NA CS NOT_NAMED 1926-10-17 21:00:00 TS 14.5425 -81.0425 main 232 205 P_____________ AL101926 14.5425 -81.0425 TS 62 0 6 330
1926287N12279 1926 54 NA CS NOT_NAMED 1926-10-18 00:00:00 TS 14.8000 -81.2000 65 hurdat_atl main 205 193 O_____________ hurdat_atl AL101926 14.8000 -81.2000 HU 65 1 6 330
1926287N12279 1926 54 NA CS NOT_NAMED 1926-10-18 03:00:00 TS 15.0500 -81.3500 main 182 173 P_____________ AL101926 15.0500 -81.3500 HU 67 1 6 330
1926287N12279 1926 54 NA CS NOT_NAMED 1926-10-18 06:00:00 TS 15.3000 -81.5000 70 hurdat_atl main 175 167 O_____________ hurdat_atl AL101926 15.3000 -81.5000 HU 70 1 6 331
1926287N12279 1926 54 NA CS NOT_NAMED 1926-10-18 09:00:00 TS 15.5350 -81.6351 main 170 159 P_____________ AL101926 15.5350 -81.6351 HU 72 1 6 330
1926287N12279 1926 54 NA CS NOT_NAMED 1926-10-18 12:00:00 TS 15.8000 -81.8000 75 hurdat_atl main 165 162 O_____________ hurdat_atl AL101926 15.8000 -81.8000 HU 75 1 7 327
1926287N12279 1926 54 NA CS NOT_NAMED 1926-10-18 15:00:00 TS 16.1275 -82.0425 main 170 163 P_____________ AL101926 16.1275 -82.0425 HU 77 1 9 326
1926287N12279 1926 54 NA CS NOT_NAMED 1926-10-18 18:00:00 TS 16.5000 -82.3000 80 974 hurdat_atl main 178 178 O_____________ hurdat_atl AL101926 16.5000 -82.3000 HU 80 974 1 9 329
1926287N12279 1926 54 NA CS NOT_NAMED 1926-10-18 21:00:00 TS 16.8850 -82.5151 main 203 203 P_____________ AL101926 16.8850 -82.5151 HU 87 2 9 334
1926287N12279 1926 54 NA CS NOT_NAMED 1926-10-19 00:00:00 TS 17.3000 -82.7000 95 hurdat_atl main 235 235 O_____________ hurdat_atl AL101926 17.3000 -82.7000 HU 95 2 9 337
1926287N12279 1926 54 NA CS NOT_NAMED 1926-10-19 03:00:00 TS 17.7425 -82.8874 main 259 259 P_____________ AL101926 17.7425 -82.8874 HU 105 3 10 342
1926287N12279 1926 54 NA CS NOT_NAMED 1926-10-19 06:00:00 TS 18.2000 -83.0000 115 hurdat_atl main 302 302 O_____________ hurdat_atl AL101926 18.2000 -83.0000 HU 115 4 9 355
1926287N12279 1926 54 NA CS NOT_NAMED 1926-10-19 09:00:00 TS 18.6650 -82.9728 main 302 257 P_____________ AL101926 18.6650 -82.9728 HU 117 4 9 6
1926287N12279 1926 54 NA CS NOT_NAMED 1926-10-19 12:00:00 TS 19.1000 -82.9000 120 hurdat_atl main 257 223 O_____________ hurdat_atl AL101926 19.1000 -82.9000 HU 120 4 8 6
1926287N12279 1926 54 NA CS NOT_NAMED 1926-10-19 15:00:00 TS 19.4650 -82.8924 main 212 179 P_____________ AL101926 19.4650 -82.8924 HU 120 4 7 0
1926287N12279 1926 54 NA CS NOT_NAMED 1926-10-19 18:00:00 TS 19.8000 -82.9000 120 hurdat_atl main 179 145 O_____________ hurdat_atl AL101926 19.8000 -82.9000 HU 120 4 7 0
1926287N12279 1926 54 NA CS NOT_NAMED 1926-10-19 21:00:00 TS 20.1425 -82.9074 main 145 101 P_____________ AL101926 20.1425 -82.9074 HU 122 4 7 0
1926287N12279 1926 54 NA CS NOT_NAMED 1926-10-20 00:00:00 TS 20.5000 -82.9000 125 hurdat_atl main 101 56 O_____________ hurdat_atl AL101926 20.5000 -82.9000 HU 125 4 7 3
1926287N12279 1926 54 NA CS NOT_NAMED 1926-10-20 03:00:00 TS 20.8775 -82.8575 main 56 11 P_____________ AL101926 20.8775 -82.8575 HU 125 4 8 7
1926287N12279 1926 54 NA CS NOT_NAMED 1926-10-20 06:00:00 TS 21.3000 -82.8000 125 939 hurdat_atl main 11 0 O_____________ hurdat_atl AL101926 21.3000 -82.8000 HU 125 939 4 9 4
1926287N12279 1926 54 NA CS NOT_NAMED 1926-10-20 09:00:00 TS 21.7774 -82.7870 main 0 0 P_____________ AL101926 21.7774 -82.7870 HU 127 936 4 10 6
1926287N12279 1926 54 NA CS NOT_NAMED 1926-10-20 12:00:00 TS 22.3000 -82.7000 130 934 hurdat_atl main 44 0 O_____________ hurdat_atl AL101926 22.3000 -82.7000 HU 130 934 4 11 15
1926287N12279 1926 54 NA NA NOT_NAMED 1926-10-20 15:00:00 TS 22.8423 -82.4747 main 0 0 P_____________ AL101926 22.8423 -82.4747 HU 125 937 4 12 27
1926287N12279 1926 54 NA NA NOT_NAMED 1926-10-20 18:00:00 TS 23.4000 -82.1000 120 hurdat_atl main 33 33 I_____________ hurdat_atl AL101926 23.4000 -82.1000 HU 120 941 4 14 36
1926287N12279 1926 54 NA NA NOT_NAMED 1926-10-20 21:00:00 TS 23.9500 -81.6023 main 89 67 P_____________ AL101926 23.9500 -81.6023 HU 115 945 4 15 42
1926287N12279 1926 54 NA NA NOT_NAMED 1926-10-21 00:00:00 TS 24.5000 -81.0000 110 949 hurdat_atl main 67 11 O_____________ hurdat_atl AL101926 24.5000 -81.0000 HU 110 949 3 15 45
1926287N12279 1926 54 NA NA NOT_NAMED 1926-10-21 03:00:00 TS 25.0345 -80.3939 main 11 0 P_____________ AL101926 25.0345 -80.3939 HU 110 3 16 47
1926287N12279 1926 54 NA NA NOT_NAMED 1926-10-21 06:00:00 TS 25.6000 -79.7000 110 hurdat_atl main 45 45 O_____________ hurdat_atl AL101926 25.6000 -79.7000 HU 110 3 18 47
1926287N12279 1926 54 NA NA NOT_NAMED 1926-10-21 09:00:00 TS 26.2488 -78.9391 main 119 119 P_____________ AL101926 26.2488 -78.9391 HU 110 3 20 50
1926287N12279 1926 54 NA NA NOT_NAMED 1926-10-21 12:00:00 TS 26.9000 -78.0000 110 hurdat_atl main 198 198 O_____________ hurdat_atl AL101926 26.9000 -78.0000 HU 110 3 23 57
1926287N12279 1926 54 NA NA NOT_NAMED 1926-10-21 15:00:00 TS 27.4653 -76.8092 main 293 293 P_____________ AL101926 27.4653 -76.8092 HU 110 3 25 64
1926287N12279 1926 54 NA NA NOT_NAMED 1926-10-21 18:00:00 TS 28.0000 -75.5000 110 hurdat_atl main 408 408 O_____________ hurdat_atl AL101926 28.0000 -75.5000 HU 110 3 25 64
1926287N12279 1926 54 NA NA NOT_NAMED 1926-10-21 21:00:00 TS 28.5559 -74.2637 main 535 535 P_____________ AL101926 28.5559 -74.2637 HU 110 3 25 63
1926287N12279 1926 54 NA NA NOT_NAMED 1926-10-22 00:00:00 TS 29.1000 -73.0000 110 hurdat_atl main 666 666 O_____________ hurdat_atl AL101926 29.1000 -73.0000 HU 110 3 25 65
1926287N12279 1926 54 NA NA NOT_NAMED 1926-10-22 03:00:00 TS 29.5989 -71.6706 main 725 725 P_____________ AL101926 29.5989 -71.6706 HU 110 3 26 67
1926287N12279 1926 54 NA NA NOT_NAMED 1926-10-22 06:00:00 TS 30.1000 -70.3000 110 hurdat_atl main 774 774 O_____________ hurdat_atl AL101926 30.1000 -70.3000 HU 110 3 26 67
1926287N12279 1926 54 NA NA NOT_NAMED 1926-10-22 09:00:00 TS 30.6338 -68.9060 main 840 840 P_____________ AL101926 30.6338 -68.9060 HU 107 3 26 65
1926287N12279 1926 54 NA NA NOT_NAMED 1926-10-22 12:00:00 TS 31.2000 -67.5000 105 hurdat_atl main 900 900 O_____________ hurdat_atl AL101926 31.2000 -67.5000 HU 105 3 27 65
1926287N12279 1926 54 NA NA NOT_NAMED 1926-10-22 15:00:00 TS 31.7767 -66.0759 main 974 974 P_____________ AL101926 31.7767 -66.0759 HU 105 3 27 63
1926287N12279 1926 54 NA NA NOT_NAMED 1926-10-22 18:00:00 TS 32.4000 -64.7000 105 962 hurdat_atl main 1061 1061 O_____________ hurdat_atl AL101926 32.4000 -64.7000 HU 105 962 3 26 60
1926287N12279 1926 54 NA NA NOT_NAMED 1926-10-22 21:00:00 TS 33.0905 -63.4261 main 1119 1107 P_____________ AL101926 33.0905 -63.4261 HU 100 3 25 56
1926287N12279 1926 54 NA NA NOT_NAMED 1926-10-23 00:00:00 TS 33.8000 -62.2000 95 hurdat_atl main 1112 1072 O_____________ hurdat_atl AL101926 33.8000 -62.2000 HU 95 2 25 56
1926287N12279 1926 54 NA NA NOT_NAMED 1926-10-23 03:00:00 TS 34.4862 -60.9492 main 1070 1046 P_____________ AL101926 34.4862 -60.9492 HU 90 2 24 58
1926287N12279 1926 54 NA NA NOT_NAMED 1926-10-23 06:00:00 TS 35.1000 -59.7000 85 hurdat_atl main 1050 1042 O_____________ hurdat_atl AL101926 35.1000 -59.7000 HU 85 2 23 61
1926287N12279 1926 54 NA NA NOT_NAMED 1926-10-23 09:00:00 TS 35.6161 -58.4491 main 1057 1053 P_____________ AL101926 35.6161 -58.4491 HU 80 1 22 66
1926287N12279 1926 54 NA NA NOT_NAMED 1926-10-23 12:00:00 TS 36.0000 -57.2000 75 hurdat_atl main 1074 1069 O_____________ hurdat_atl AL101926 36.0000 -57.2000 HU 75 1 21 73
1926287N12279 1926 54 NA NA NOT_NAMED 1926-10-23 15:00:00 TS 36.2512 -55.9483 main 1081 1081 P_____________ AL101926 36.2512 -55.9483 HU 72 1 21 79
1926287N12279 1926 54 NA NA NOT_NAMED 1926-10-23 18:00:00 TS 36.4000 -54.7000 70 hurdat_atl main 1115 1115 O_____________ hurdat_atl AL101926 36.4000 -54.7000 HU 70 1 20 83
1926287N12279 1926 54 NA NA NOT_NAMED 1926-10-23 21:00:00 TS 36.5144 -53.4266 main 1123 1112 P_____________ AL101926 36.5144 -53.4266 HU 70 1 20 84
1926287N12279 1926 54 NA NA NOT_NAMED 1926-10-24 00:00:00 TS 36.6000 -52.2000 70 hurdat_atl main 1115 1109 O_____________ hurdat_atl AL101926 36.6000 -52.2000 HU 70 1 19 84
1926287N12279 1926 54 NA NA NOT_NAMED 1926-10-24 03:00:00 TS 36.6987 -51.0623 main 1114 1112 P_____________ AL101926 36.6987 -51.0623 HU 70 1 18 84
1926287N12279 1926 54 NA NA NOT_NAMED 1926-10-24 06:00:00 TS 36.8000 -50.0000 70 hurdat_atl main 1121 1121 O_____________ hurdat_atl AL101926 36.8000 -50.0000 HU 70 1 17 83
1926287N12279 1926 54 NA NA NOT_NAMED 1926-10-24 09:00:00 TS 36.8996 -48.9474 main 1135 1135 P_____________ AL101926 36.8996 -48.9474 HU 70 1 16 83
1926287N12279 1926 54 NA NA NOT_NAMED 1926-10-24 12:00:00 TS 37.0000 -48.0000 70 hurdat_atl main 1150 1150 O_____________ hurdat_atl AL101926 37.0000 -48.0000 HU 70 1 14 82
1926287N12279 1926 54 NA NA NOT_NAMED 1926-10-24 15:00:00 TS 37.1068 -47.1750 main 1166 1166 P_____________ AL101926 37.1068 -47.1750 HU 70 1 12 81
1926287N12279 1926 54 NA NA NOT_NAMED 1926-10-24 18:00:00 TS 37.2000 -46.5000 70 hurdat_atl main 1181 1181 O_____________ hurdat_atl AL101926 37.2000 -46.5000 HU 70 1 10 81
1926287N12279 1926 54 NA NA NOT_NAMED 1926-10-24 21:00:00 TS 37.2570 -45.9397 main 1195 1195 P_____________ AL101926 37.2570 -45.9397 HU 72 1 8 83
1926287N12279 1926 54 NA NA NOT_NAMED 1926-10-25 00:00:00 TS 37.3000 -45.5000 75 hurdat_atl main 1212 1212 O_____________ hurdat_atl AL101926 37.3000 -45.5000 HU 75 1 7 81
1926287N12279 1926 54 NA NA NOT_NAMED 1926-10-25 03:00:00 TS 37.3649 -45.0976 main 1220 1220 P_____________ AL101926 37.3649 -45.0976 HU 75 1 6 80
1926287N12279 1926 54 NA NA NOT_NAMED 1926-10-25 06:00:00 TS 37.4000 -44.8000 75 hurdat_atl main 1233 1233 O_____________ hurdat_atl AL101926 37.4000 -44.8000 HU 75 1 4 85
1926287N12279 1926 54 NA NA NOT_NAMED 1926-10-25 09:00:00 TS 37.3948 -44.6201 main 1242 1242 P_____________ AL101926 37.3948 -44.6201 HU 77 1 3 113
1926287N12279 1926 54 NA NA NOT_NAMED 1926-10-25 12:00:00 TS 37.3000 -44.5000 80 hurdat_atl main 1256 1256 O_____________ hurdat_atl AL101926 37.3000 -44.5000 HU 80 1 4 136
1926287N12279 1926 54 NA NA NOT_NAMED 1926-10-25 15:00:00 TS 37.1325 -44.2967 main 1285 1285 P_____________ AL101926 37.1325 -44.2967 HU 80 1 6 154
1926287N12279 1926 54 NA NA NOT_NAMED 1926-10-25 18:00:00 TS 36.8000 -44.2000 80 hurdat_atl main 1318 1318 O_____________ hurdat_atl AL101926 36.8000 -44.2000 HU 80 1 9 181
1926287N12279 1926 54 NA NA NOT_NAMED 1926-10-25 21:00:00 TS 36.2821 -44.3018 main 1361 1361 P_____________ AL101926 36.2821 -44.3018 HU 77 1 12 195
1926287N12279 1926 54 NA NA NOT_NAMED 1926-10-26 00:00:00 TS 35.6000 -44.6000 75 hurdat_atl main 1417 1417 O_____________ hurdat_atl AL101926 35.6000 -44.6000 HU 75 1 16 202
1926287N12279 1926 54 NA NA NOT_NAMED 1926-10-26 03:00:00 TS 34.8223 -45.0250 main 1480 1477 P_____________ AL101926 34.8223 -45.0250 HU 70 1 18 207
1926287N12279 1926 54 NA NA NOT_NAMED 1926-10-26 06:00:00 TS 34.0000 -45.6000 65 hurdat_atl main 1540 1540 O_____________ hurdat_atl AL101926 34.0000 -45.6000 HU 65 1 19 213
1926287N12279 1926 54 NA NA NOT_NAMED 1926-10-26 09:00:00 TS 33.2199 -46.2623 main 1601 1601 P_____________ AL101926 33.2199 -46.2623 HU 60 0 19 218
1926287N12279 1926 54 NA NA NOT_NAMED 1926-10-26 12:00:00 TS 32.5000 -47.0000 55 hurdat_atl main 1655 1655 O_____________ hurdat_atl AL101926 32.5000 -47.0000 TS 55 0 18 223
1926287N12279 1926 54 NA NA NOT_NAMED 1926-10-26 15:00:00 TS 31.8622 -47.7415 main 1701 1701 P_____________ AL101926 31.8622 -47.7415 TS 52 0 18 227
1926287N12279 1926 54 NA NA NOT_NAMED 1926-10-26 18:00:00 TS 31.3000 -48.5000 50 hurdat_atl main 1749 1749 O_____________ hurdat_atl AL101926 31.3000 -48.5000 TS 50 0 17 230
1926287N12279 1926 54 NA NA NOT_NAMED 1926-10-26 21:00:00 TS 30.7696 -49.2492 main 1792 1792 P_____________ AL101926 30.7696 -49.2492 TS 50 0 16 232
1926287N12279 1926 54 NA NA NOT_NAMED 1926-10-27 00:00:00 TS 30.3000 -50.0000 50 hurdat_atl main 1835 1835 O_____________ hurdat_atl AL101926 30.3000 -50.0000 TS 50 0 16 235
1926287N12279 1926 54 NA NA NOT_NAMED 1926-10-27 03:00:00 TS 29.8621 -50.7495 main 1871 1871 P_____________ AL101926 29.8621 -50.7495 TS 50 0 15 238
1926287N12279 1926 54 NA NA NOT_NAMED 1926-10-27 06:00:00 TS 29.5000 -51.5000 50 hurdat_atl main 1891 1817 O_____________ hurdat_atl AL101926 29.5000 -51.5000 TS 50 0 15 244
1926287N12279 1926 54 NA NA NOT_NAMED 1926-10-27 09:00:00 TS 29.2049 -52.2722 main 1809 1743 P_____________ AL101926 29.2049 -52.2722 TS 50 0 14 249
1926287N12279 1926 54 NA NA NOT_NAMED 1926-10-27 12:00:00 TS 29.0000 -53.0000 50 hurdat_atl main 1743 1691 O_____________ hurdat_atl AL101926 29.0000 -53.0000 TS 50 0 13 253
1926287N12279 1926 54 NA NA NOT_NAMED 1926-10-27 15:00:00 TS 28.8473 -53.6523 main 1677 1640 P_____________ AL101926 28.8473 -53.6523 TS 50 0 11 259
1926287N12279 1926 54 NA NA NOT_NAMED 1926-10-27 18:00:00 TS 28.8000 -54.2000 50 hurdat_atl main 1640 1612 O_____________ hurdat_atl AL101926 28.8000 -54.2000 TS 50 0 9 269
1926287N12279 1926 54 NA NA NOT_NAMED 1926-10-27 21:00:00 TS 28.8322 -54.6524 main 1605 1599 P_____________ AL101926 28.8322 -54.6524 TS 47 0 7 286
1926287N12279 1926 54 NA NA NOT_NAMED 1926-10-28 00:00:00 TS 29.0000 -55.0000 45 hurdat_atl main 1600 1593 O_____________ hurdat_atl AL101926 29.0000 -55.0000 TS 45 0 7 312
1926287N12279 1926 54 NA NA NOT_NAMED 1926-10-28 03:00:00 TS 29.3101 -55.2697 main 1604 1604 P_____________ AL101926 29.3101 -55.2697 TS 42 0 8 328
1926287N12279 1926 54 NA NA NOT_NAMED 1926-10-28 06:00:00 ET 29.7000 -55.5000 40 hurdat_atl main 1624 O_____________ hurdat_atl AL101926 29.7000 -55.5000 EX 40 -4 9 333

About IBTrACS Database

This database is a web-friendly format of International Best Track Archive for Climate Stewardship (IBTrACS), a global best track data archive curated by NOAA dating back to 1842.

Updated: 2021-10-08